createdAt,value
2018-07-27T00:03:04.543Z,8.23
2018-07-27T00:06:37.913Z,7.90
2018-07-27T00:10:14.553Z,8.63
2018-07-27T00:13:47.800Z,8.67
2018-07-27T00:17:21.032Z,8.00
2018-07-27T00:20:54.279Z,7.47
2018-07-27T00:24:27.513Z,8.43
2018-07-27T00:28:00.768Z,8.30
2018-07-27T00:31:34.000Z,8.63
2018-07-27T00:35:07.234Z,7.37
2018-07-27T00:38:40.526Z,8.13
2018-07-27T00:42:13.781Z,8.53
2018-07-27T00:45:47.011Z,8.57
2018-07-27T00:49:20.232Z,8.60
2018-07-27T00:52:53.472Z,6.70
2018-07-27T00:56:26.681Z,8.40
2018-07-27T00:59:59.912Z,8.53
2018-07-27T01:03:33.227Z,7.97
2018-07-27T01:07:06.441Z,8.80
2018-07-27T01:10:39.675Z,7.83
2018-07-27T01:14:12.904Z,7.30
2018-07-27T01:17:46.156Z,8.13
2018-07-27T01:21:19.389Z,8.97
2018-07-27T01:24:52.612Z,7.43
2018-07-27T01:28:25.847Z,7.77
2018-07-27T01:31:59.072Z,9.20
2018-07-27T01:35:32.303Z,8.00
2018-07-27T01:39:08.928Z,8.00
2018-07-27T01:42:42.164Z,7.60
2018-07-27T01:46:15.369Z,8.37
2018-07-27T01:49:48.600Z,8.60
2018-07-27T01:53:21.828Z,8.80
2018-07-27T01:56:55.067Z,9.80
2018-07-27T02:00:28.303Z,8.97
2018-07-27T02:04:01.287Z,9.07
2018-07-27T02:07:34.515Z,10.07
2018-07-27T02:11:07.736Z,10.27
2018-07-27T02:14:40.978Z,8.40
2018-07-27T02:18:14.203Z,8.90
2018-07-27T02:21:47.419Z,10.03
2018-07-27T02:25:20.664Z,10.43
2018-07-27T02:28:53.920Z,10.23
2018-07-27T02:32:27.128Z,9.57
2018-07-27T02:36:00.352Z,9.93
2018-07-27T02:39:33.597Z,10.47
2018-07-27T02:43:06.821Z,9.40
2018-07-27T02:46:40.057Z,10.37
2018-07-27T02:50:13.282Z,8.67
2018-07-27T02:53:47.045Z,13.43
2018-07-27T02:57:20.275Z,8.50
2018-07-27T03:00:53.548Z,8.67
2018-07-27T03:04:27.196Z,9.40
2018-07-27T03:08:00.420Z,8.93
2018-07-27T03:11:33.656Z,7.93
2018-07-27T03:15:07.122Z,9.33
2018-07-27T03:18:40.096Z,10.70
2018-07-27T03:22:13.338Z,8.30
2018-07-27T03:25:46.589Z,9.23
2018-07-27T03:29:19.829Z,9.93
2018-07-27T03:32:53.061Z,9.93
2018-07-27T03:36:26.288Z,10.00
2018-07-27T03:39:59.501Z,9.23
2018-07-27T03:43:32.745Z,8.97
2018-07-27T03:47:05.956Z,10.00
2018-07-27T03:50:40.665Z,11.07
2018-07-27T03:54:13.891Z,11.00
2018-07-27T03:57:47.112Z,9.90
2018-07-27T04:01:20.465Z,10.53
2018-07-27T04:04:55.891Z,9.87
2018-07-27T04:08:29.540Z,9.63
2018-07-27T04:12:02.828Z,10.07
2018-07-27T04:15:36.056Z,9.50
2018-07-27T04:19:09.483Z,9.93
2018-07-27T04:22:42.756Z,9.97
2018-07-27T04:26:16.047Z,10.23
2018-07-27T04:29:49.229Z,10.03
2018-07-27T04:33:22.584Z,10.53
2018-07-27T04:36:55.865Z,11.50
2018-07-27T04:40:29.249Z,11.60
2018-07-27T04:44:02.492Z,11.37
2018-07-27T04:47:35.731Z,11.13
2018-07-27T04:51:08.997Z,10.30
2018-07-27T04:54:42.260Z,9.87
2018-07-27T04:58:15.579Z,9.13
2018-07-27T05:01:48.895Z,11.07
2018-07-27T05:05:22.118Z,10.80
2018-07-27T05:09:00.897Z,12.77
2018-07-27T05:12:34.132Z,12.10
2018-07-27T05:16:07.579Z,12.10
2018-07-27T05:19:40.808Z,10.60
2018-07-27T05:23:14.200Z,12.20
2018-07-27T05:26:47.433Z,11.80
2018-07-27T05:30:20.676Z,13.13
2018-07-27T05:33:53.928Z,12.03
2018-07-27T05:37:27.160Z,11.60
2018-07-27T05:41:00.512Z,11.17
2018-07-27T05:44:33.747Z,11.43
2018-07-27T05:48:06.968Z,11.90
2018-07-27T05:51:40.240Z,11.70
2018-07-27T05:55:13.475Z,12.53
2018-07-27T05:58:46.718Z,12.13
2018-07-27T06:02:22.073Z,12.40
2018-07-27T06:05:53.242Z,14.37
2018-07-27T06:09:26.547Z,12.60
2018-07-27T06:12:59.782Z,12.53
2018-07-27T06:16:33.012Z,15.80
2018-07-27T06:20:08.204Z,13.37
2018-07-27T06:23:41.472Z,13.40
2018-07-27T06:27:14.736Z,14.53
2018-07-27T06:30:47.966Z,14.37
2018-07-27T06:34:21.224Z,12.70
2018-07-27T06:37:54.481Z,14.90
2018-07-27T06:41:27.703Z,15.00
2018-07-27T06:45:00.685Z,12.80
2018-07-27T06:48:33.912Z,13.77
2018-07-27T06:52:07.180Z,13.80
2018-07-27T06:55:40.420Z,12.73
2018-07-27T06:59:14.024Z,13.40
2018-07-27T07:02:47.278Z,13.37
2018-07-27T07:06:20.523Z,11.60
2018-07-27T07:09:53.776Z,10.17
2018-07-27T07:13:27.008Z,10.17
2018-07-27T07:17:00.232Z,9.40
2018-07-27T07:20:33.460Z,9.40
2018-07-27T07:24:07.296Z,8.70
2018-07-27T07:27:40.532Z,9.17
2018-07-27T07:31:13.796Z,8.70
2018-07-27T07:34:47.028Z,9.10
2018-07-27T07:38:20.275Z,8.70
2018-07-27T07:41:53.515Z,8.47
2018-07-27T07:45:26.725Z,9.00
2018-07-27T07:49:03.711Z,7.60
2018-07-27T07:52:36.956Z,7.87
2018-07-27T07:56:10.228Z,7.67
2018-07-27T07:59:43.456Z,7.83
2018-07-27T08:03:16.694Z,8.00
2018-07-27T08:06:49.948Z,9.07
2018-07-27T08:10:23.289Z,9.03
2018-07-27T08:13:56.529Z,7.80
2018-07-27T08:17:29.767Z,8.60
2018-07-27T08:21:02.988Z,8.40
2018-07-27T08:24:36.240Z,8.50
2018-07-27T08:28:20.707Z,7.23
2018-07-27T08:31:54.402Z,8.20
2018-07-27T08:35:27.619Z,8.03
2018-07-27T08:39:00.965Z,7.47
2018-07-27T08:42:34.143Z,7.20
2018-07-27T08:46:07.493Z,8.00
2018-07-27T08:49:40.719Z,7.13
2018-07-27T08:53:13.956Z,7.07
2018-07-27T08:56:47.176Z,7.17
2018-07-27T09:00:30.651Z,7.77
2018-07-27T09:04:03.871Z,7.00
2018-07-27T09:07:37.116Z,6.97
2018-07-27T09:11:10.343Z,7.30
2018-07-27T09:14:43.561Z,6.97
2018-07-27T09:18:16.821Z,7.10
2018-07-27T09:21:50.079Z,7.43
2018-07-27T09:25:23.512Z,6.77
2018-07-27T09:28:56.551Z,7.50
2018-07-27T09:32:29.769Z,8.10
2018-07-27T09:36:03.184Z,7.60
2018-07-27T09:39:36.428Z,7.63
2018-07-27T09:43:09.668Z,7.43
2018-07-27T09:46:42.888Z,7.90
2018-07-27T09:50:16.120Z,7.30
2018-07-27T09:53:49.510Z,7.27
2018-07-27T09:57:22.733Z,7.00
2018-07-27T10:01:01.170Z,6.37
2018-07-27T10:04:34.391Z,7.57
2018-07-27T10:08:07.707Z,6.37
2018-07-27T10:11:40.935Z,6.60
2018-07-27T10:15:14.181Z,7.07
2018-07-27T10:18:47.418Z,6.33
2018-07-27T10:22:20.856Z,6.90
2018-07-27T10:25:54.075Z,6.77
2018-07-27T10:29:27.322Z,7.40
2018-07-27T10:33:00.561Z,6.87
2018-07-27T10:36:33.802Z,7.53
2018-07-27T10:40:08.506Z,5.70
2018-07-27T10:43:41.768Z,6.70
2018-07-27T10:47:15.020Z,6.70
2018-07-27T10:50:48.246Z,6.70
2018-07-27T10:54:21.481Z,6.10
2018-07-27T10:57:54.715Z,7.10
2018-07-27T11:01:28.160Z,5.97
2018-07-27T11:05:01.400Z,7.20
2018-07-27T11:08:34.637Z,6.57
2018-07-27T11:12:07.909Z,6.70
2018-07-27T11:15:41.127Z,7.83
2018-07-27T11:19:14.407Z,6.60
2018-07-27T11:22:47.676Z,6.97
2018-07-27T11:26:20.910Z,7.37
2018-07-27T11:29:54.149Z,7.77
2018-07-27T11:33:27.464Z,7.77
2018-07-27T11:37:00.505Z,14.00
2018-07-27T11:40:33.700Z,0.30
2018-07-27T11:44:06.944Z,0.30
2018-07-27T11:47:40.179Z,0.30
2018-07-27T11:51:13.407Z,0.20
2018-07-27T11:54:46.640Z,0.20
2018-07-27T11:58:19.856Z,0.40
2018-07-27T12:01:53.113Z,0.30
2018-07-27T12:05:26.348Z,0.20
2018-07-27T12:08:59.583Z,0.20
2018-07-27T12:12:32.837Z,0.30
2018-07-27T12:16:06.079Z,0.20
2018-07-27T12:19:39.292Z,0.30
2018-07-27T12:23:12.543Z,0.30
2018-07-27T12:26:45.796Z,0.40
2018-07-27T12:30:19.027Z,0.27
2018-07-27T12:33:52.412Z,0.30
2018-07-27T12:37:25.677Z,0.30
2018-07-27T12:40:58.905Z,0.30
2018-07-27T12:44:32.148Z,0.30
2018-07-27T12:48:05.476Z,0.30
2018-07-27T12:51:38.770Z,0.20
2018-07-27T12:55:12.002Z,0.30
2018-07-27T12:58:45.228Z,0.30
2018-07-27T13:02:18.476Z,0.27
2018-07-27T13:05:51.699Z,0.30
2018-07-27T13:09:24.944Z,0.20
2018-07-27T13:12:58.165Z,0.30
2018-07-27T13:16:31.381Z,0.30
2018-07-27T13:20:05.577Z,0.30
2018-07-27T13:23:47.243Z,5.50
2018-07-27T13:27:20.514Z,4.80
2018-07-27T13:30:53.744Z,5.73
2018-07-27T13:34:33.983Z,5.53
2018-07-27T13:38:07.204Z,6.60
2018-07-27T13:41:40.444Z,7.00
2018-07-27T13:45:13.665Z,5.97
2018-07-27T13:48:46.912Z,6.23
2018-07-27T13:52:20.141Z,6.50
2018-07-27T13:55:53.355Z,6.63
2018-07-27T13:59:26.595Z,6.53
2018-07-27T14:02:59.840Z,6.20
2018-07-27T14:06:32.864Z,6.80
2018-07-27T14:10:06.109Z,6.37
2018-07-27T14:13:39.349Z,5.93
2018-07-27T14:17:12.596Z,6.70
2018-07-27T14:20:45.828Z,7.47
2018-07-27T14:24:18.873Z,7.20
2018-07-27T14:27:52.096Z,7.07
2018-07-27T14:31:25.516Z,6.70
2018-07-27T14:34:58.719Z,6.00
2018-07-27T14:38:31.967Z,6.80
2018-07-27T14:42:05.255Z,7.20
2018-07-27T14:45:38.459Z,6.50
2018-07-27T14:49:13.072Z,6.40
2018-07-27T14:52:46.381Z,6.80
2018-07-27T14:56:19.555Z,6.17
2018-07-27T14:59:52.809Z,5.80
2018-07-27T15:03:26.037Z,5.80
2018-07-27T15:06:59.256Z,5.50
2018-07-27T15:10:32.384Z,5.93
2018-07-27T15:14:05.620Z,5.80
2018-07-27T15:17:38.848Z,6.10
2018-07-27T15:21:12.081Z,6.20
2018-07-27T15:24:45.320Z,6.43
2018-07-27T15:28:18.549Z,6.70
2018-07-27T15:31:51.797Z,5.90
2018-07-27T15:35:25.073Z,6.30
2018-07-27T15:38:58.305Z,6.63
2018-07-27T15:42:31.550Z,5.90
2018-07-27T15:46:04.786Z,6.50
2018-07-27T15:49:38.051Z,5.63
2018-07-27T15:53:11.020Z,5.40
2018-07-27T15:56:44.260Z,5.60
2018-07-27T16:00:17.497Z,5.50
2018-07-27T16:03:50.780Z,5.93
2018-07-27T16:07:23.997Z,6.43
2018-07-27T16:10:57.237Z,6.60
2018-07-27T16:14:30.460Z,6.30
2018-07-27T16:18:03.696Z,7.13
2018-07-27T16:21:36.929Z,6.20
2018-07-27T16:25:09.927Z,6.67
2018-07-27T16:28:43.177Z,6.80
2018-07-27T16:32:16.467Z,6.40
2018-07-27T16:35:49.711Z,6.53
2018-07-27T16:39:22.976Z,6.77
2018-07-27T16:42:56.223Z,5.87
2018-07-27T16:46:29.494Z,6.80
2018-07-27T16:50:02.737Z,6.00
2018-07-27T16:53:35.719Z,6.87
2018-07-27T16:57:08.969Z,5.73
2018-07-27T17:00:42.204Z,6.50
2018-07-27T17:04:15.443Z,6.47
2018-07-27T17:07:48.708Z,5.80
2018-07-27T17:11:21.927Z,6.60
2018-07-27T17:14:54.910Z,6.03
2018-07-27T17:18:28.260Z,5.90
2018-07-27T17:22:01.496Z,6.30
2018-07-27T17:25:35.246Z,6.40
2018-07-27T17:29:08.398Z,5.23
2018-07-27T17:32:41.650Z,7.27
2018-07-27T17:36:14.877Z,7.00
2018-07-27T17:39:48.119Z,6.90
2018-07-27T17:43:21.454Z,6.90
2018-07-27T17:46:54.680Z,5.77
2018-07-27T17:50:29.380Z,6.60
2018-07-27T17:54:02.649Z,9.93
2018-07-27T17:57:35.943Z,9.00
2018-07-27T18:01:09.621Z,8.27
2018-07-27T18:04:43.067Z,8.83
2018-07-27T18:08:16.339Z,8.37
2018-07-27T18:11:49.638Z,7.90
2018-07-27T18:15:23.403Z,7.70
2018-07-27T18:18:56.736Z,7.50
2018-07-27T18:22:30.312Z,7.63
2018-07-27T18:26:03.609Z,7.67
2018-07-27T18:29:37.115Z,7.10
2018-07-27T18:33:10.344Z,7.83
2018-07-27T18:36:43.701Z,8.47
2018-07-27T18:40:16.935Z,7.63
2018-07-27T18:43:50.401Z,8.10
2018-07-27T18:47:23.635Z,7.40
2018-07-27T18:50:56.941Z,8.43
2018-07-27T18:54:30.163Z,9.80
2018-07-27T18:58:03.535Z,10.23
2018-07-27T19:01:37.763Z,10.40
2018-07-27T19:05:11.268Z,9.87
2018-07-27T19:08:44.515Z,9.60
2018-07-27T19:12:17.773Z,8.83
2018-07-27T19:15:51.217Z,9.50
2018-07-27T19:19:24.409Z,8.80
2018-07-27T19:22:57.659Z,8.40
2018-07-27T19:26:30.885Z,9.67
2018-07-27T19:30:06.704Z,9.20
2018-07-27T19:33:39.703Z,11.03
2018-07-27T19:37:12.941Z,14.13
2018-07-27T19:40:46.331Z,12.83
2018-07-27T19:44:19.603Z,11.40
2018-07-27T19:47:52.796Z,11.17
2018-07-27T19:51:26.012Z,11.53
2018-07-27T19:54:59.260Z,12.30
2018-07-27T19:58:32.523Z,13.33
2018-07-27T20:02:05.843Z,12.20
2018-07-27T20:05:39.384Z,11.20
2018-07-27T20:09:12.623Z,12.10
2018-07-27T20:12:45.853Z,12.90
2018-07-27T20:16:19.072Z,12.97
2018-07-27T20:19:52.349Z,11.73
2018-07-27T20:23:25.688Z,12.97
2018-07-27T20:26:58.915Z,12.10
2018-07-27T20:30:32.233Z,12.20
2018-07-27T20:34:05.471Z,12.70
2018-07-27T20:37:38.719Z,14.40
2018-07-27T20:41:11.987Z,13.30
2018-07-27T20:44:45.221Z,15.67
2018-07-27T20:48:18.536Z,15.90
2018-07-27T20:51:51.754Z,14.17
2018-07-27T20:55:25.004Z,12.43
2018-07-27T20:58:58.223Z,12.77
2018-07-27T21:02:31.480Z,11.70
2018-07-27T21:06:04.904Z,12.50
2018-07-27T21:09:38.145Z,11.97
2018-07-27T21:13:11.384Z,13.07
2018-07-27T21:16:44.637Z,12.63
2018-07-27T21:20:18.007Z,13.10
2018-07-27T21:23:51.257Z,13.07
2018-07-27T21:27:24.575Z,12.87
2018-07-27T21:30:57.846Z,11.80
2018-07-27T21:34:30.811Z,11.87
2018-07-27T21:38:03.799Z,11.50
2018-07-27T21:41:36.764Z,13.83
2018-07-27T21:45:10.011Z,13.90
2018-07-27T21:48:43.255Z,11.80
2018-07-27T21:52:16.497Z,12.80
2018-07-27T21:55:49.733Z,12.50
2018-07-27T21:59:22.993Z,13.03
2018-07-27T22:02:55.974Z,13.43
2018-07-27T22:06:29.225Z,12.00
2018-07-27T22:10:02.479Z,11.77
2018-07-27T22:13:35.717Z,11.33
2018-07-27T22:17:08.952Z,12.17
2018-07-27T22:20:42.195Z,12.13
2018-07-27T22:24:15.183Z,11.60
2018-07-27T22:27:48.816Z,12.50
2018-07-27T22:31:22.060Z,12.83
2018-07-27T22:34:55.307Z,11.93
2018-07-27T22:38:28.580Z,11.10
2018-07-27T22:42:01.586Z,12.13
2018-07-27T22:45:34.824Z,10.67
2018-07-27T22:49:08.067Z,11.07
2018-07-27T22:52:41.599Z,11.30
2018-07-27T22:56:14.827Z,12.13
2018-07-27T22:59:48.064Z,11.07
2018-07-27T23:03:21.296Z,12.20
2018-07-27T23:06:54.544Z,11.93
2018-07-27T23:10:28.233Z,13.07
2018-07-27T23:14:01.465Z,11.40
2018-07-27T23:17:34.735Z,12.00
2018-07-27T23:21:07.964Z,11.23
2018-07-27T23:24:41.211Z,12.40
2018-07-27T23:28:14.456Z,12.43
2018-07-27T23:31:47.685Z,11.13
2018-07-27T23:35:20.912Z,11.07
2018-07-27T23:38:54.139Z,11.53
2018-07-27T23:42:27.384Z,11.17
2018-07-27T23:46:00.644Z,11.33
2018-07-27T23:49:33.880Z,12.30
2018-07-27T23:53:07.221Z,11.87
2018-07-27T23:56:40.464Z,12.50
